sensor_id;sensor_type;location;lat;lon;timestamp;P1;durP1;ratioP1;P2;durP2;ratioP2
5704;SDS011;2877;48.238;11.160;2022-07-29T00:01:23;2.50;;;2.30;;
5704;SDS011;2877;48.238;11.160;2022-07-29T00:03:48;7.20;;;2.43;;
5704;SDS011;2877;48.238;11.160;2022-07-29T00:06:14;2.90;;;2.50;;
5704;SDS011;2877;48.238;11.160;2022-07-29T00:08:40;3.33;;;2.90;;
5704;SDS011;2877;48.238;11.160;2022-07-29T00:11:06;5.10;;;2.90;;
5704;SDS011;2877;48.238;11.160;2022-07-29T00:13:31;4.43;;;2.70;;
5704;SDS011;2877;48.238;11.160;2022-07-29T00:15:57;2.90;;;2.60;;
5704;SDS011;2877;48.238;11.160;2022-07-29T00:18:22;3.00;;;2.80;;
5704;SDS011;2877;48.238;11.160;2022-07-29T00:20:48;2.87;;;2.60;;
5704;SDS011;2877;48.238;11.160;2022-07-29T00:23:13;2.70;;;2.50;;
5704;SDS011;2877;48.238;11.160;2022-07-29T00:25:39;3.47;;;2.10;;
5704;SDS011;2877;48.238;11.160;2022-07-29T00:28:04;4.20;;;2.33;;
5704;SDS011;2877;48.238;11.160;2022-07-29T00:30:30;2.40;;;2.30;;
5704;SDS011;2877;48.238;11.160;2022-07-29T00:32:56;3.20;;;2.40;;
5704;SDS011;2877;48.238;11.160;2022-07-29T00:35:21;2.40;;;2.20;;
5704;SDS011;2877;48.238;11.160;2022-07-29T00:38:07;3.00;;;2.43;;
5704;SDS011;2877;48.238;11.160;2022-07-29T00:40:33;3.13;;;2.47;;
5704;SDS011;2877;48.238;11.160;2022-07-29T00:42:58;3.20;;;2.50;;
5704;SDS011;2877;48.238;11.160;2022-07-29T00:45:24;3.17;;;2.50;;
5704;SDS011;2877;48.238;11.160;2022-07-29T00:47:49;2.40;;;2.23;;
5704;SDS011;2877;48.238;11.160;2022-07-29T00:50:15;5.43;;;2.93;;
5704;SDS011;2877;48.238;11.160;2022-07-29T00:52:41;4.57;;;2.50;;
5704;SDS011;2877;48.238;11.160;2022-07-29T00:55:08;3.27;;;2.97;;
5704;SDS011;2877;48.238;11.160;2022-07-29T00:57:36;3.73;;;3.37;;
5704;SDS011;2877;48.238;11.160;2022-07-29T01:00:04;3.40;;;2.90;;
5704;SDS011;2877;48.238;11.160;2022-07-29T01:02:31;3.63;;;3.33;;
5704;SDS011;2877;48.238;11.160;2022-07-29T01:04:57;3.57;;;3.23;;
5704;SDS011;2877;48.238;11.160;2022-07-29T01:07:23;4.13;;;3.10;;
5704;SDS011;2877;48.238;11.160;2022-07-29T01:09:50;3.80;;;3.50;;
5704;SDS011;2877;48.238;11.160;2022-07-29T01:12:18;3.67;;;3.00;;
5704;SDS011;2877;48.238;11.160;2022-07-29T01:14:50;3.40;;;3.10;;
5704;SDS011;2877;48.238;11.160;2022-07-29T01:17:21;4.00;;;3.03;;
5704;SDS011;2877;48.238;11.160;2022-07-29T01:28:17;3.83;;;3.30;;
5704;SDS011;2877;48.238;11.160;2022-07-29T01:31:03;4.33;;;3.40;;
5704;SDS011;2877;48.238;11.160;2022-07-29T01:33:30;3.70;;;3.40;;
5704;SDS011;2877;48.238;11.160;2022-07-29T01:39:12;3.53;;;3.23;;
5704;SDS011;2877;48.238;11.160;2022-07-29T01:41:46;5.50;;;3.60;;
5704;SDS011;2877;48.238;11.160;2022-07-29T01:44:22;4.60;;;3.20;;
5704;SDS011;2877;48.238;11.160;2022-07-29T01:46:58;3.70;;;3.40;;
5704;SDS011;2877;48.238;11.160;2022-07-29T01:49:31;3.53;;;3.23;;
5704;SDS011;2877;48.238;11.160;2022-07-29T01:52:08;3.13;;;2.93;;
5704;SDS011;2877;48.238;11.160;2022-07-29T01:54:45;3.83;;;3.53;;
5704;SDS011;2877;48.238;11.160;2022-07-29T01:57:16;3.37;;;2.93;;
5704;SDS011;2877;48.238;11.160;2022-07-29T01:59:45;3.70;;;3.27;;
5704;SDS011;2877;48.238;11.160;2022-07-29T02:02:13;3.20;;;3.00;;
5704;SDS011;2877;48.238;11.160;2022-07-29T02:04:40;3.70;;;3.40;;
5704;SDS011;2877;48.238;11.160;2022-07-29T02:07:07;3.60;;;3.30;;
5704;SDS011;2877;48.238;11.160;2022-07-29T02:09:38;3.50;;;3.20;;
5704;SDS011;2877;48.238;11.160;2022-07-29T02:12:06;6.50;;;3.80;;
5704;SDS011;2877;48.238;11.160;2022-07-29T02:14:39;4.27;;;3.13;;
5704;SDS011;2877;48.238;11.160;2022-07-29T02:17:09;3.70;;;3.40;;
5704;SDS011;2877;48.238;11.160;2022-07-29T02:19:38;3.90;;;3.60;;
5704;SDS011;2877;48.238;11.160;2022-07-29T02:22:06;4.30;;;3.90;;
5704;SDS011;2877;48.238;11.160;2022-07-29T02:24:36;4.57;;;4.17;;
5704;SDS011;2877;48.238;11.160;2022-07-29T02:27:03;4.03;;;3.40;;
5704;SDS011;2877;48.238;11.160;2022-07-29T02:29:29;4.10;;;3.50;;
5704;SDS011;2877;48.238;11.160;2022-07-29T02:31:57;6.27;;;3.70;;
5704;SDS011;2877;48.238;11.160;2022-07-29T02:34:24;10.00;;;3.63;;
5704;SDS011;2877;48.238;11.160;2022-07-29T02:36:50;3.40;;;3.17;;
5704;SDS011;2877;48.238;11.160;2022-07-29T02:39:17;5.27;;;3.37;;
5704;SDS011;2877;48.238;11.160;2022-07-29T02:41:47;3.80;;;3.50;;
5704;SDS011;2877;48.238;11.160;2022-07-29T02:44:20;3.10;;;2.90;;
5704;SDS011;2877;48.238;11.160;2022-07-29T02:46:53;3.53;;;3.23;;
5704;SDS011;2877;48.238;11.160;2022-07-29T02:49:28;4.67;;;3.03;;
5704;SDS011;2877;48.238;11.160;2022-07-29T02:52:01;2.70;;;2.53;;
5704;SDS011;2877;48.238;11.160;2022-07-29T02:54:31;2.90;;;2.70;;
5704;SDS011;2877;48.238;11.160;2022-07-29T02:57:20;2.53;;;2.30;;
5704;SDS011;2877;48.238;11.160;2022-07-29T02:59:51;3.20;;;2.90;;
5704;SDS011;2877;48.238;11.160;2022-07-29T03:02:22;2.90;;;2.60;;
5704;SDS011;2877;48.238;11.160;2022-07-29T03:04:48;3.07;;;2.47;;
5704;SDS011;2877;48.238;11.160;2022-07-29T03:07:16;2.30;;;2.20;;
5704;SDS011;2877;48.238;11.160;2022-07-29T03:09:45;2.50;;;2.40;;
5704;SDS011;2877;48.238;11.160;2022-07-29T03:12:11;2.83;;;2.20;;
5704;SDS011;2877;48.238;11.160;2022-07-29T03:14:38;2.03;;;1.93;;
5704;SDS011;2877;48.238;11.160;2022-07-29T03:17:04;2.40;;;2.30;;
5704;SDS011;2877;48.238;11.160;2022-07-29T03:19:30;3.77;;;1.83;;
5704;SDS011;2877;48.238;11.160;2022-07-29T03:21:57;3.07;;;2.10;;
5704;SDS011;2877;48.238;11.160;2022-07-29T03:24:33;2.07;;;1.97;;
5704;SDS011;2877;48.238;11.160;2022-07-29T03:27:00;2.10;;;2.00;;
5704;SDS011;2877;48.238;11.160;2022-07-29T03:29:26;2.47;;;2.27;;
5704;SDS011;2877;48.238;11.160;2022-07-29T03:31:52;3.23;;;2.23;;
5704;SDS011;2877;48.238;11.160;2022-07-29T03:34:18;3.23;;;2.57;;
5704;SDS011;2877;48.238;11.160;2022-07-29T03:36:46;2.90;;;2.70;;
5704;SDS011;2877;48.238;11.160;2022-07-29T03:39:12;2.70;;;2.50;;
5704;SDS011;2877;48.238;11.160;2022-07-29T03:41:42;4.80;;;3.10;;
5704;SDS011;2877;48.238;11.160;2022-07-29T03:44:10;3.73;;;2.70;;
5704;SDS011;2877;48.238;11.160;2022-07-29T03:46:37;3.50;;;2.63;;
5704;SDS011;2877;48.238;11.160;2022-07-29T03:49:03;4.13;;;2.93;;
5704;SDS011;2877;48.238;11.160;2022-07-29T03:51:29;2.77;;;2.60;;
5704;SDS011;2877;48.238;11.160;2022-07-29T03:53:56;3.40;;;2.90;;
5704;SDS011;2877;48.238;11.160;2022-07-29T03:56:22;9.17;;;3.47;;
5704;SDS011;2877;48.238;11.160;2022-07-29T03:58:51;4.23;;;2.60;;
5704;SDS011;2877;48.238;11.160;2022-07-29T04:01:17;3.43;;;2.90;;
5704;SDS011;2877;48.238;11.160;2022-07-29T04:03:44;4.63;;;2.73;;
5704;SDS011;2877;48.238;11.160;2022-07-29T04:06:11;6.43;;;2.40;;
5704;SDS011;2877;48.238;11.160;2022-07-29T04:08:36;7.07;;;3.30;;
5704;SDS011;2877;48.238;11.160;2022-07-29T04:11:02;7.77;;;2.80;;
5704;SDS011;2877;48.238;11.160;2022-07-29T04:13:29;3.03;;;2.77;;
5704;SDS011;2877;48.238;11.160;2022-07-29T04:15:55;3.00;;;2.80;;
5704;SDS011;2877;48.238;11.160;2022-07-29T04:18:20;7.23;;;2.67;;
5704;SDS011;2877;48.238;11.160;2022-07-29T04:20:46;4.13;;;2.90;;
5704;SDS011;2877;48.238;11.160;2022-07-29T04:23:12;7.00;;;3.47;;
5704;SDS011;2877;48.238;11.160;2022-07-29T04:25:38;5.57;;;3.10;;
5704;SDS011;2877;48.238;11.160;2022-07-29T04:28:04;3.33;;;3.03;;
5704;SDS011;2877;48.238;11.160;2022-07-29T04:30:31;3.97;;;3.10;;
5704;SDS011;2877;48.238;11.160;2022-07-29T04:32:57;4.50;;;3.20;;
5704;SDS011;2877;48.238;11.160;2022-07-29T04:35:25;5.20;;;3.03;;
5704;SDS011;2877;48.238;11.160;2022-07-29T04:37:52;4.20;;;3.50;;
5704;SDS011;2877;48.238;11.160;2022-07-29T04:40:17;7.80;;;3.30;;
5704;SDS011;2877;48.238;11.160;2022-07-29T04:42:43;4.13;;;3.13;;
5704;SDS011;2877;48.238;11.160;2022-07-29T04:45:08;2.83;;;2.63;;
5704;SDS011;2877;48.238;11.160;2022-07-29T04:47:34;4.60;;;2.80;;
5704;SDS011;2877;48.238;11.160;2022-07-29T04:50:00;8.00;;;3.43;;
5704;SDS011;2877;48.238;11.160;2022-07-29T04:52:25;3.57;;;2.80;;
5704;SDS011;2877;48.238;11.160;2022-07-29T04:54:51;9.63;;;3.40;;
5704;SDS011;2877;48.238;11.160;2022-07-29T04:57:16;3.50;;;3.20;;
5704;SDS011;2877;48.238;11.160;2022-07-29T04:59:42;6.30;;;3.43;;
5704;SDS011;2877;48.238;11.160;2022-07-29T05:02:08;4.43;;;3.20;;
5704;SDS011;2877;48.238;11.160;2022-07-29T05:04:34;17.50;;;3.50;;
5704;SDS011;2877;48.238;11.160;2022-07-29T05:06:59;10.97;;;3.97;;
5704;SDS011;2877;48.238;11.160;2022-07-29T05:09:25;6.27;;;2.40;;
5704;SDS011;2877;48.238;11.160;2022-07-29T05:11:50;4.33;;;2.83;;
5704;SDS011;2877;48.238;11.160;2022-07-29T05:14:16;3.27;;;2.70;;
5704;SDS011;2877;48.238;11.160;2022-07-29T05:16:41;6.53;;;2.77;;
5704;SDS011;2877;48.238;11.160;2022-07-29T05:19:08;2.53;;;2.13;;
5704;SDS011;2877;48.238;11.160;2022-07-29T05:21:34;3.40;;;2.30;;
5704;SDS011;2877;48.238;11.160;2022-07-29T05:23:59;4.50;;;2.33;;
5704;SDS011;2877;48.238;11.160;2022-07-29T05:26:25;6.90;;;2.30;;
5704;SDS011;2877;48.238;11.160;2022-07-29T05:28:51;2.17;;;2.07;;
5704;SDS011;2877;48.238;11.160;2022-07-29T05:31:17;1.80;;;1.70;;
5704;SDS011;2877;48.238;11.160;2022-07-29T05:33:42;8.40;;;3.07;;
5704;SDS011;2877;48.238;11.160;2022-07-29T05:36:08;1.90;;;1.53;;
5704;SDS011;2877;48.238;11.160;2022-07-29T05:38:34;5.20;;;1.83;;
5704;SDS011;2877;48.238;11.160;2022-07-29T05:41:00;5.60;;;2.00;;
5704;SDS011;2877;48.238;11.160;2022-07-29T05:43:26;4.83;;;1.60;;
5704;SDS011;2877;48.238;11.160;2022-07-29T05:45:55;2.30;;;2.10;;
5704;SDS011;2877;48.238;11.160;2022-07-29T05:48:20;2.90;;;2.00;;
5704;SDS011;2877;48.238;11.160;2022-07-29T05:50:46;4.07;;;1.80;;
5704;SDS011;2877;48.238;11.160;2022-07-29T05:53:11;1.60;;;1.50;;
5704;SDS011;2877;48.238;11.160;2022-07-29T05:55:37;1.70;;;1.50;;
5704;SDS011;2877;48.238;11.160;2022-07-29T05:58:02;4.20;;;1.67;;
5704;SDS011;2877;48.238;11.160;2022-07-29T06:00:28;2.27;;;1.40;;
5704;SDS011;2877;48.238;11.160;2022-07-29T06:02:54;1.23;;;1.13;;
5704;SDS011;2877;48.238;11.160;2022-07-29T06:05:20;4.23;;;1.17;;
5704;SDS011;2877;48.238;11.160;2022-07-29T06:07:45;2.00;;;1.80;;
5704;SDS011;2877;48.238;11.160;2022-07-29T06:10:11;1.93;;;1.43;;
5704;SDS011;2877;48.238;11.160;2022-07-29T06:12:36;1.63;;;1.50;;
5704;SDS011;2877;48.238;11.160;2022-07-29T06:15:02;2.60;;;1.27;;
5704;SDS011;2877;48.238;11.160;2022-07-29T06:17:28;1.30;;;1.20;;
5704;SDS011;2877;48.238;11.160;2022-07-29T06:19:54;3.53;;;1.60;;
5704;SDS011;2877;48.238;11.160;2022-07-29T06:22:19;1.53;;;1.20;;
5704;SDS011;2877;48.238;11.160;2022-07-29T06:24:45;2.23;;;1.07;;
5704;SDS011;2877;48.238;11.160;2022-07-29T06:27:10;1.50;;;1.37;;
5704;SDS011;2877;48.238;11.160;2022-07-29T06:29:36;1.20;;;1.20;;
5704;SDS011;2877;48.238;11.160;2022-07-29T06:32:02;1.60;;;1.50;;
5704;SDS011;2877;48.238;11.160;2022-07-29T06:34:27;4.37;;;1.63;;
5704;SDS011;2877;48.238;11.160;2022-07-29T06:36:53;1.60;;;1.43;;
5704;SDS011;2877;48.238;11.160;2022-07-29T06:39:19;1.57;;;1.40;;
5704;SDS011;2877;48.238;11.160;2022-07-29T06:41:47;2.70;;;1.40;;
5704;SDS011;2877;48.238;11.160;2022-07-29T06:44:15;4.30;;;1.40;;
5704;SDS011;2877;48.238;11.160;2022-07-29T06:46:42;2.40;;;1.50;;
5704;SDS011;2877;48.238;11.160;2022-07-29T06:49:08;2.20;;;1.10;;
5704;SDS011;2877;48.238;11.160;2022-07-29T06:51:34;1.60;;;1.50;;
5704;SDS011;2877;48.238;11.160;2022-07-29T06:54:01;1.77;;;1.30;;
5704;SDS011;2877;48.238;11.160;2022-07-29T06:56:27;1.20;;;1.20;;
5704;SDS011;2877;48.238;11.160;2022-07-29T06:58:52;2.80;;;1.43;;
5704;SDS011;2877;48.238;11.160;2022-07-29T07:01:18;1.40;;;1.40;;
5704;SDS011;2877;48.238;11.160;2022-07-29T07:03:44;3.33;;;1.20;;
5704;SDS011;2877;48.238;11.160;2022-07-29T07:06:10;2.83;;;1.20;;
5704;SDS011;2877;48.238;11.160;2022-07-29T07:08:35;1.60;;;1.50;;
5704;SDS011;2877;48.238;11.160;2022-07-29T07:11:01;1.90;;;1.50;;
5704;SDS011;2877;48.238;11.160;2022-07-29T07:13:27;1.30;;;1.20;;
5704;SDS011;2877;48.238;11.160;2022-07-29T07:15:56;1.50;;;1.40;;
5704;SDS011;2877;48.238;11.160;2022-07-29T07:18:21;1.80;;;1.70;;
5704;SDS011;2877;48.238;11.160;2022-07-29T07:20:47;1.47;;;1.37;;
5704;SDS011;2877;48.238;11.160;2022-07-29T07:23:12;2.40;;;1.33;;
5704;SDS011;2877;48.238;11.160;2022-07-29T07:25:38;1.50;;;1.40;;
5704;SDS011;2877;48.238;11.160;2022-07-29T07:28:03;2.07;;;1.47;;
5704;SDS011;2877;48.238;11.160;2022-07-29T07:30:29;1.63;;;1.40;;
5704;SDS011;2877;48.238;11.160;2022-07-29T07:32:55;1.47;;;1.37;;
5704;SDS011;2877;48.238;11.160;2022-07-29T07:35:21;1.53;;;1.43;;
5704;SDS011;2877;48.238;11.160;2022-07-29T07:37:47;2.43;;;1.70;;
5704;SDS011;2877;48.238;11.160;2022-07-29T07:40:13;1.40;;;1.33;;
5704;SDS011;2877;48.238;11.160;2022-07-29T07:42:39;1.60;;;1.50;;
5704;SDS011;2877;48.238;11.160;2022-07-29T07:45:06;1.80;;;1.70;;
5704;SDS011;2877;48.238;11.160;2022-07-29T07:47:34;2.07;;;1.63;;
5704;SDS011;2877;48.238;11.160;2022-07-29T07:50:00;1.83;;;1.40;;
5704;SDS011;2877;48.238;11.160;2022-07-29T07:52:26;1.70;;;1.60;;
5704;SDS011;2877;48.238;11.160;2022-07-29T07:54:52;1.60;;;1.50;;
5704;SDS011;2877;48.238;11.160;2022-07-29T07:57:17;1.60;;;1.50;;
5704;SDS011;2877;48.238;11.160;2022-07-29T07:59:43;1.33;;;1.33;;
5704;SDS011;2877;48.238;11.160;2022-07-29T08:02:09;1.57;;;1.47;;
5704;SDS011;2877;48.238;11.160;2022-07-29T08:04:35;1.20;;;1.20;;
5704;SDS011;2877;48.238;11.160;2022-07-29T08:07:00;2.30;;;1.30;;
5704;SDS011;2877;48.238;11.160;2022-07-29T08:09:27;1.53;;;1.43;;
5704;SDS011;2877;48.238;11.160;2022-07-29T08:11:54;1.33;;;1.23;;
5704;SDS011;2877;48.238;11.160;2022-07-29T08:14:20;1.97;;;1.87;;
5704;SDS011;2877;48.238;11.160;2022-07-29T08:16:46;1.57;;;1.47;;
5704;SDS011;2877;48.238;11.160;2022-07-29T08:19:12;1.50;;;1.40;;
5704;SDS011;2877;48.238;11.160;2022-07-29T08:21:37;2.30;;;1.30;;
5704;SDS011;2877;48.238;11.160;2022-07-29T08:24:03;3.13;;;1.30;;
5704;SDS011;2877;48.238;11.160;2022-07-29T08:26:48;2.47;;;1.70;;
5704;SDS011;2877;48.238;11.160;2022-07-29T08:29:13;3.23;;;1.50;;
5704;SDS011;2877;48.238;11.160;2022-07-29T08:31:39;2.07;;;1.87;;
5704;SDS011;2877;48.238;11.160;2022-07-29T08:34:05;1.50;;;1.40;;
5704;SDS011;2877;48.238;11.160;2022-07-29T08:36:31;1.57;;;1.47;;
5704;SDS011;2877;48.238;11.160;2022-07-29T08:38:58;2.23;;;2.03;;
5704;SDS011;2877;48.238;11.160;2022-07-29T08:41:24;1.43;;;1.33;;
5704;SDS011;2877;48.238;11.160;2022-07-29T08:43:51;1.70;;;1.60;;
5704;SDS011;2877;48.238;11.160;2022-07-29T08:46:17;1.77;;;1.67;;
5704;SDS011;2877;48.238;11.160;2022-07-29T08:48:43;2.60;;;1.70;;
5704;SDS011;2877;48.238;11.160;2022-07-29T08:51:12;1.80;;;1.70;;
5704;SDS011;2877;48.238;11.160;2022-07-29T08:53:43;2.50;;;1.90;;
5704;SDS011;2877;48.238;11.160;2022-07-29T08:56:13;2.30;;;2.10;;
5704;SDS011;2877;48.238;11.160;2022-07-29T08:58:39;2.37;;;1.53;;
5704;SDS011;2877;48.238;11.160;2022-07-29T09:01:06;2.20;;;1.80;;
5704;SDS011;2877;48.238;11.160;2022-07-29T09:03:32;2.07;;;1.80;;
5704;SDS011;2877;48.238;11.160;2022-07-29T09:06:00;3.17;;;2.20;;
5704;SDS011;2877;48.238;11.160;2022-07-29T09:08:27;1.77;;;1.60;;
5704;SDS011;2877;48.238;11.160;2022-07-29T09:10:53;2.10;;;1.70;;
5704;SDS011;2877;48.238;11.160;2022-07-29T09:13:20;1.80;;;1.70;;
5704;SDS011;2877;48.238;11.160;2022-07-29T09:15:46;2.50;;;2.10;;
5704;SDS011;2877;48.238;11.160;2022-07-29T09:18:24;3.47;;;2.20;;
5704;SDS011;2877;48.238;11.160;2022-07-29T09:20:58;2.20;;;2.10;;
5704;SDS011;2877;48.238;11.160;2022-07-29T09:23:59;4.27;;;2.40;;
5704;SDS011;2877;48.238;11.160;2022-07-29T09:26:32;2.00;;;1.90;;
5704;SDS011;2877;48.238;11.160;2022-07-29T09:28:59;2.13;;;1.93;;
5704;SDS011;2877;48.238;11.160;2022-07-29T09:31:32;2.67;;;1.97;;
5704;SDS011;2877;48.238;11.160;2022-07-29T09:34:00;2.70;;;2.50;;
5704;SDS011;2877;48.238;11.160;2022-07-29T09:36:25;2.53;;;2.33;;
5704;SDS011;2877;48.238;11.160;2022-07-29T09:38:58;4.07;;;2.80;;
5704;SDS011;2877;48.238;11.160;2022-07-29T09:41:25;2.67;;;2.10;;
5704;SDS011;2877;48.238;11.160;2022-07-29T09:43:58;7.57;;;2.63;;
5704;SDS011;2877;48.238;11.160;2022-07-29T09:46:24;2.50;;;2.20;;
5704;SDS011;2877;48.238;11.160;2022-07-29T09:49:09;4.23;;;2.40;;
5704;SDS011;2877;48.238;11.160;2022-07-29T09:51:36;2.40;;;2.20;;
5704;SDS011;2877;48.238;11.160;2022-07-29T09:54:05;2.07;;;1.97;;
5704;SDS011;2877;48.238;11.160;2022-07-29T09:56:47;7.13;;;2.30;;
5704;SDS011;2877;48.238;11.160;2022-07-29T09:59:13;4.00;;;2.30;;
5704;SDS011;2877;48.238;11.160;2022-07-29T10:01:39;3.60;;;2.63;;
5704;SDS011;2877;48.238;11.160;2022-07-29T10:04:04;3.10;;;2.30;;
5704;SDS011;2877;48.238;11.160;2022-07-29T10:06:30;2.97;;;2.67;;
5704;SDS011;2877;48.238;11.160;2022-07-29T10:09:06;2.40;;;2.20;;
5704;SDS011;2877;48.238;11.160;2022-07-29T10:11:33;2.80;;;2.30;;
5704;SDS011;2877;48.238;11.160;2022-07-29T10:13:58;3.73;;;2.20;;
5704;SDS011;2877;48.238;11.160;2022-07-29T10:16:27;2.30;;;2.10;;
5704;SDS011;2877;48.238;11.160;2022-07-29T10:18:57;2.77;;;2.57;;
5704;SDS011;2877;48.238;11.160;2022-07-29T10:21:24;3.13;;;2.40;;
5704;SDS011;2877;48.238;11.160;2022-07-29T10:23:51;2.30;;;2.10;;
5704;SDS011;2877;48.238;11.160;2022-07-29T10:26:17;3.47;;;2.33;;
5704;SDS011;2877;48.238;11.160;2022-07-29T10:28:44;3.60;;;2.50;;
5704;SDS011;2877;48.238;11.160;2022-07-29T10:31:11;12.73;;;2.97;;
5704;SDS011;2877;48.238;11.160;2022-07-29T10:44:46;2.83;;;2.43;;
5704;SDS011;2877;48.238;11.160;2022-07-29T10:47:19;2.90;;;1.97;;
5704;SDS011;2877;48.238;11.160;2022-07-29T10:49:55;3.37;;;2.37;;
5704;SDS011;2877;48.238;11.160;2022-07-29T10:53:09;2.27;;;2.13;;
5704;SDS011;2877;48.238;11.160;2022-07-29T10:58:20;2.50;;;2.30;;
5704;SDS011;2877;48.238;11.160;2022-07-29T11:00:48;2.60;;;2.40;;
5704;SDS011;2877;48.238;11.160;2022-07-29T11:06:13;13.80;;;2.33;;
5704;SDS011;2877;48.238;11.160;2022-07-29T11:08:39;5.03;;;2.40;;
5704;SDS011;2877;48.238;11.160;2022-07-29T11:13:52;2.40;;;2.30;;
5704;SDS011;2877;48.238;11.160;2022-07-29T11:16:20;2.40;;;2.20;;
5704;SDS011;2877;48.238;11.160;2022-07-29T11:21:38;2.50;;;1.97;;
5704;SDS011;2877;48.238;11.160;2022-07-29T11:24:15;4.20;;;2.10;;
5704;SDS011;2877;48.238;11.160;2022-07-29T11:26:41;7.10;;;2.27;;
5704;SDS011;2877;48.238;11.160;2022-07-29T11:29:19;2.20;;;2.10;;
5704;SDS011;2877;48.238;11.160;2022-07-29T11:31:49;2.60;;;2.30;;
5704;SDS011;2877;48.238;11.160;2022-07-29T11:42:53;4.23;;;2.23;;
5704;SDS011;2877;48.238;11.160;2022-07-29T11:45:07;2.40;;;2.20;;
5704;SDS011;2877;48.238;11.160;2022-07-29T11:47:37;2.40;;;2.17;;
5704;SDS011;2877;48.238;11.160;2022-07-29T11:50:14;2.50;;;2.30;;
5704;SDS011;2877;48.238;11.160;2022-07-29T11:52:42;8.33;;;2.00;;
5704;SDS011;2877;48.238;11.160;2022-07-29T11:55:14;2.90;;;1.80;;
5704;SDS011;2877;48.238;11.160;2022-07-29T11:57:47;2.30;;;2.10;;
5704;SDS011;2877;48.238;11.160;2022-07-29T12:00:37;4.40;;;2.37;;
5704;SDS011;2877;48.238;11.160;2022-07-29T12:03:08;1.93;;;1.80;;
5704;SDS011;2877;48.238;11.160;2022-07-29T12:08:10;3.23;;;2.20;;
5704;SDS011;2877;48.238;11.160;2022-07-29T12:10:44;2.40;;;2.20;;
5704;SDS011;2877;48.238;11.160;2022-07-29T12:13:10;3.33;;;2.07;;
5704;SDS011;2877;48.238;11.160;2022-07-29T12:15:36;2.40;;;1.90;;
5704;SDS011;2877;48.238;11.160;2022-07-29T12:18:09;2.17;;;1.97;;
5704;SDS011;2877;48.238;11.160;2022-07-29T12:20:42;4.70;;;2.33;;
5704;SDS011;2877;48.238;11.160;2022-07-29T12:23:09;2.73;;;1.93;;
5704;SDS011;2877;48.238;11.160;2022-07-29T12:25:37;7.33;;;2.13;;
5704;SDS011;2877;48.238;11.160;2022-07-29T12:28:04;5.90;;;1.90;;
5704;SDS011;2877;48.238;11.160;2022-07-29T12:30:35;1.93;;;1.83;;
5704;SDS011;2877;48.238;11.160;2022-07-29T12:33:10;2.23;;;2.03;;
5704;SDS011;2877;48.238;11.160;2022-07-29T12:35:41;2.57;;;1.97;;
5704;SDS011;2877;48.238;11.160;2022-07-29T12:38:09;2.80;;;2.13;;
5704;SDS011;2877;48.238;11.160;2022-07-29T12:40:35;1.90;;;1.80;;
5704;SDS011;2877;48.238;11.160;2022-07-29T12:43:04;1.90;;;1.70;;
5704;SDS011;2877;48.238;11.160;2022-07-29T12:45:32;4.37;;;2.03;;
5704;SDS011;2877;48.238;11.160;2022-07-29T12:47:58;2.30;;;2.10;;
5704;SDS011;2877;48.238;11.160;2022-07-29T12:50:23;3.07;;;1.80;;
5704;SDS011;2877;48.238;11.160;2022-07-29T12:52:50;2.03;;;1.93;;
5704;SDS011;2877;48.238;11.160;2022-07-29T12:55:15;2.30;;;2.10;;
5704;SDS011;2877;48.238;11.160;2022-07-29T12:58:01;3.43;;;1.83;;
5704;SDS011;2877;48.238;11.160;2022-07-29T13:00:26;2.27;;;2.07;;
5704;SDS011;2877;48.238;11.160;2022-07-29T13:02:56;5.03;;;2.00;;
5704;SDS011;2877;48.238;11.160;2022-07-29T13:05:22;2.53;;;2.00;;
5704;SDS011;2877;48.238;11.160;2022-07-29T13:07:50;4.33;;;1.77;;
5704;SDS011;2877;48.238;11.160;2022-07-29T13:10:16;2.20;;;2.00;;
5704;SDS011;2877;48.238;11.160;2022-07-29T13:15:34;4.30;;;2.03;;
5704;SDS011;2877;48.238;11.160;2022-07-29T13:18:01;2.00;;;1.90;;
5704;SDS011;2877;48.238;11.160;2022-07-29T13:20:28;2.03;;;1.93;;
5704;SDS011;2877;48.238;11.160;2022-07-29T13:22:55;2.20;;;2.03;;
5704;SDS011;2877;48.238;11.160;2022-07-29T13:25:28;3.10;;;2.17;;
5704;SDS011;2877;48.238;11.160;2022-07-29T13:27:56;2.70;;;2.03;;
5704;SDS011;2877;48.238;11.160;2022-07-29T13:30:23;2.50;;;1.93;;
5704;SDS011;2877;48.238;11.160;2022-07-29T13:32:49;4.33;;;2.00;;
5704;SDS011;2877;48.238;11.160;2022-07-29T13:35:20;1.70;;;1.60;;
5704;SDS011;2877;48.238;11.160;2022-07-29T13:37:45;1.87;;;1.77;;
5704;SDS011;2877;48.238;11.160;2022-07-29T13:40:11;4.63;;;2.70;;
5704;SDS011;2877;48.238;11.160;2022-07-29T13:42:37;2.13;;;2.03;;
5704;SDS011;2877;48.238;11.160;2022-07-29T13:45:03;3.60;;;2.07;;
5704;SDS011;2877;48.238;11.160;2022-07-29T13:47:31;3.10;;;2.40;;
5704;SDS011;2877;48.238;11.160;2022-07-29T13:49:57;2.30;;;2.10;;
5704;SDS011;2877;48.238;11.160;2022-07-29T13:52:22;2.50;;;2.30;;
5704;SDS011;2877;48.238;11.160;2022-07-29T13:54:48;2.20;;;2.10;;
5704;SDS011;2877;48.238;11.160;2022-07-29T13:57:14;2.63;;;2.13;;
5704;SDS011;2877;48.238;11.160;2022-07-29T13:59:40;2.10;;;2.00;;
5704;SDS011;2877;48.238;11.160;2022-07-29T14:02:09;2.30;;;2.10;;
5704;SDS011;2877;48.238;11.160;2022-07-29T14:04:35;2.20;;;2.10;;
5704;SDS011;2877;48.238;11.160;2022-07-29T14:07:01;3.37;;;2.20;;
5704;SDS011;2877;48.238;11.160;2022-07-29T14:09:28;4.50;;;2.20;;
5704;SDS011;2877;48.238;11.160;2022-07-29T14:11:53;4.40;;;2.63;;
5704;SDS011;2877;48.238;11.160;2022-07-29T14:14:19;3.20;;;1.90;;
5704;SDS011;2877;48.238;11.160;2022-07-29T14:16:45;2.53;;;2.33;;
5704;SDS011;2877;48.238;11.160;2022-07-29T14:19:10;2.90;;;2.10;;
5704;SDS011;2877;48.238;11.160;2022-07-29T14:21:36;2.20;;;2.00;;
5704;SDS011;2877;48.238;11.160;2022-07-29T14:24:02;4.93;;;2.37;;
5704;SDS011;2877;48.238;11.160;2022-07-29T14:26:28;3.20;;;2.90;;
5704;SDS011;2877;48.238;11.160;2022-07-29T14:28:54;2.97;;;1.90;;
5704;SDS011;2877;48.238;11.160;2022-07-29T14:31:19;2.67;;;2.47;;
5704;SDS011;2877;48.238;11.160;2022-07-29T14:33:45;2.60;;;2.00;;
5704;SDS011;2877;48.238;11.160;2022-07-29T14:36:10;3.50;;;2.63;;
5704;SDS011;2877;48.238;11.160;2022-07-29T14:38:36;4.87;;;2.50;;
5704;SDS011;2877;48.238;11.160;2022-07-29T14:41:02;4.43;;;2.07;;
5704;SDS011;2877;48.238;11.160;2022-07-29T14:43:28;2.50;;;2.30;;
5704;SDS011;2877;48.238;11.160;2022-07-29T14:45:54;2.70;;;2.27;;
5704;SDS011;2877;48.238;11.160;2022-07-29T14:48:19;3.60;;;2.27;;
5704;SDS011;2877;48.238;11.160;2022-07-29T14:50:45;2.10;;;2.00;;
5704;SDS011;2877;48.238;11.160;2022-07-29T14:53:10;3.40;;;2.17;;
5704;SDS011;2877;48.238;11.160;2022-07-29T14:55:38;2.43;;;2.33;;
5704;SDS011;2877;48.238;11.160;2022-07-29T14:58:04;2.10;;;1.90;;
5704;SDS011;2877;48.238;11.160;2022-07-29T15:00:29;2.30;;;2.13;;
5704;SDS011;2877;48.238;11.160;2022-07-29T15:02:57;3.07;;;2.40;;
5704;SDS011;2877;48.238;11.160;2022-07-29T15:05:23;2.60;;;2.40;;
5704;SDS011;2877;48.238;11.160;2022-07-29T15:07:48;2.67;;;2.43;;
5704;SDS011;2877;48.238;11.160;2022-07-29T15:10:14;2.60;;;2.50;;
5704;SDS011;2877;48.238;11.160;2022-07-29T15:12:39;2.57;;;2.37;;
5704;SDS011;2877;48.238;11.160;2022-07-29T15:15:05;2.73;;;2.50;;
5704;SDS011;2877;48.238;11.160;2022-07-29T15:17:32;2.83;;;2.63;;
5704;SDS011;2877;48.238;11.160;2022-07-29T15:19:58;4.80;;;2.70;;
5704;SDS011;2877;48.238;11.160;2022-07-29T15:22:23;4.20;;;2.57;;
5704;SDS011;2877;48.238;11.160;2022-07-29T15:24:49;2.70;;;2.50;;
5704;SDS011;2877;48.238;11.160;2022-07-29T15:27:14;3.30;;;2.70;;
5704;SDS011;2877;48.238;11.160;2022-07-29T15:29:40;2.43;;;2.30;;
5704;SDS011;2877;48.238;11.160;2022-07-29T15:32:06;3.63;;;2.47;;
5704;SDS011;2877;48.238;11.160;2022-07-29T15:37:54;4.47;;;2.40;;
5704;SDS011;2877;48.238;11.160;2022-07-29T15:40:19;3.70;;;2.80;;
5704;SDS011;2877;48.238;11.160;2022-07-29T15:42:45;4.03;;;3.00;;
5704;SDS011;2877;48.238;11.160;2022-07-29T15:45:10;3.20;;;2.87;;
5704;SDS011;2877;48.238;11.160;2022-07-29T15:47:36;3.80;;;2.57;;
5704;SDS011;2877;48.238;11.160;2022-07-29T15:50:02;3.00;;;2.73;;
5704;SDS011;2877;48.238;11.160;2022-07-29T15:52:28;3.90;;;3.00;;
5704;SDS011;2877;48.238;11.160;2022-07-29T15:54:54;3.70;;;3.10;;